createdAt,value
2022-08-23T00:01:35.060Z,8.23
2022-08-23T00:04:06.911Z,10.40
2022-08-23T00:06:34.135Z,7.45
2022-08-23T00:09:01.261Z,8.93
2022-08-23T00:11:30.240Z,9.90
2022-08-23T00:13:58.807Z,6.90
2022-08-23T00:16:26.387Z,9.35
2022-08-23T00:18:53.827Z,12.13
2022-08-23T00:21:22.029Z,8.95
2022-08-23T00:23:49.083Z,6.13
2022-08-23T00:26:16.195Z,7.47
2022-08-23T00:28:43.230Z,7.63
2022-08-23T00:31:10.314Z,5.57
2022-08-23T00:33:37.378Z,6.90
2022-08-23T00:36:04.616Z,6.20
2022-08-23T00:38:35.134Z,6.55
2022-08-23T00:41:03.107Z,8.50
2022-08-23T00:43:54.554Z,5.63
2022-08-23T00:47:03.718Z,4.40
2022-08-23T00:49:33.681Z,6.95
2022-08-23T00:52:40.689Z,6.20
2022-08-23T00:55:08.798Z,9.07
2022-08-23T00:57:37.448Z,3.90
2022-08-23T01:00:08.161Z,6.30
2022-08-23T01:02:36.099Z,6.78
2022-08-23T01:05:04.739Z,6.28
2022-08-23T01:07:46.994Z,8.88
2022-08-23T01:10:32.730Z,11.60
2022-08-23T01:13:10.766Z,5.65
2022-08-23T01:15:44.012Z,8.20
2022-08-23T01:18:15.299Z,6.75
2022-08-23T01:20:51.640Z,7.20
2022-08-23T01:23:27.744Z,9.48
2022-08-23T01:25:55.434Z,9.20
2022-08-23T01:28:22.700Z,28.33
2022-08-23T01:30:50.139Z,18.92
2022-08-23T01:33:18.165Z,12.55
2022-08-23T01:35:49.785Z,12.40
2022-08-23T01:38:17.307Z,12.00
2022-08-23T01:40:46.508Z,9.15
2022-08-23T01:43:15.484Z,9.32
2022-08-23T01:45:43.330Z,12.38
2022-08-23T01:48:12.977Z,10.32
2022-08-23T01:50:40.323Z,8.90
2022-08-23T01:53:08.340Z,7.85
2022-08-23T01:55:36.217Z,7.50
2022-08-23T01:58:05.525Z,10.07
2022-08-23T02:00:37.517Z,12.23
2022-08-23T02:03:07.171Z,9.25
2022-08-23T02:05:37.382Z,15.50
2022-08-23T02:08:25.532Z,7.30
2022-08-23T02:10:55.264Z,7.55
2022-08-23T02:13:23.850Z,9.90
2022-08-23T02:15:52.694Z,7.65
2022-08-23T02:18:21.274Z,8.50
2022-08-23T02:20:51.074Z,12.77
2022-08-23T02:23:19.262Z,9.25
2022-08-23T02:25:46.776Z,9.73
2022-08-23T02:28:14.213Z,9.82
2022-08-23T02:30:41.271Z,7.65
2022-08-23T02:33:10.564Z,10.38
2022-08-23T02:35:38.824Z,15.60
2022-08-23T02:38:07.888Z,10.60
2022-08-23T02:40:35.783Z,19.85
2022-08-23T02:43:06.826Z,23.98
2022-08-23T02:45:35.063Z,15.15
2022-08-23T02:48:02.320Z,24.13
2022-08-23T02:50:36.920Z,24.77
2022-08-23T02:53:04.711Z,35.13
2022-08-23T02:55:33.331Z,41.13
2022-08-23T02:58:00.511Z,39.20
2022-08-23T03:00:27.985Z,35.25
2022-08-23T03:02:55.057Z,45.83
2022-08-23T03:05:22.399Z,35.25
2022-08-23T03:07:49.425Z,39.05
2022-08-23T03:10:17.044Z,41.30
2022-08-23T03:12:50.941Z,39.65
2022-08-23T03:15:18.101Z,34.97
2022-08-23T03:17:45.091Z,27.17
2022-08-23T03:20:12.730Z,22.10
2022-08-23T03:22:40.387Z,24.58
2022-08-23T03:25:18.278Z,26.48
2022-08-23T03:28:08.403Z,26.77
2022-08-23T03:30:39.818Z,26.33
2022-08-23T03:33:08.156Z,26.90
2022-08-23T03:35:35.536Z,24.42
2022-08-23T03:38:03.865Z,31.92
2022-08-23T03:40:31.126Z,21.38
2022-08-23T03:42:58.162Z,16.10
2022-08-23T03:45:28.931Z,24.30
2022-08-23T03:47:56.153Z,21.80
2022-08-23T03:50:23.729Z,20.33
2022-08-23T03:52:51.592Z,14.45
2022-08-23T03:55:18.803Z,19.38
2022-08-23T03:57:49.271Z,13.20
2022-08-23T04:00:20.378Z,14.85
2022-08-23T04:02:49.950Z,8.57
2022-08-23T04:05:17.303Z,11.73
2022-08-23T04:08:02.654Z,7.22
2022-08-23T04:10:30.095Z,15.25
2022-08-23T04:12:57.133Z,9.40
2022-08-23T04:15:24.874Z,11.15
2022-08-23T04:17:52.155Z,10.55
2022-08-23T04:20:19.366Z,12.02
2022-08-23T04:23:02.151Z,14.50
2022-08-23T04:25:35.499Z,12.60
2022-08-23T04:28:05.206Z,16.42
2022-08-23T04:30:33.575Z,20.00
2022-08-23T04:33:01.711Z,34.53
2022-08-23T04:35:30.477Z,33.38
2022-08-23T04:37:57.759Z,36.30
2022-08-23T04:40:44.470Z,36.08
2022-08-23T04:43:13.271Z,38.72
2022-08-23T04:45:42.103Z,36.03
2022-08-23T04:48:16.528Z,23.98
2022-08-23T04:50:47.936Z,18.20
2022-08-23T04:53:18.931Z,14.48
2022-08-23T04:55:56.017Z,14.18
2022-08-23T04:58:23.095Z,9.93
2022-08-23T05:00:52.994Z,13.15
2022-08-23T05:03:25.504Z,14.18
2022-08-23T05:05:54.327Z,9.05
2022-08-23T05:08:27.243Z,9.05
2022-08-23T05:10:54.729Z,8.35
2022-08-23T05:13:22.363Z,12.70
2022-08-23T05:15:52.785Z,6.20
2022-08-23T05:18:22.683Z,12.02
2022-08-23T05:20:51.614Z,9.32
2022-08-23T05:23:19.237Z,8.35
2022-08-23T05:26:02.044Z,8.93
2022-08-23T05:28:38.929Z,6.25
2022-08-23T05:31:12.918Z,14.82
2022-08-23T05:33:46.439Z,8.13
2022-08-23T05:36:19.072Z,17.10
2022-08-23T05:38:49.757Z,14.05
2022-08-23T05:41:18.137Z,12.48
2022-08-23T05:43:49.818Z,12.55
2022-08-23T05:46:20.075Z,17.80
2022-08-23T05:48:58.271Z,13.90
2022-08-23T05:51:28.906Z,19.73
2022-08-23T05:53:59.492Z,20.13
2022-08-23T05:56:30.091Z,16.58
2022-08-23T05:59:00.252Z,22.17
2022-08-23T06:01:30.928Z,18.92
2022-08-23T06:04:06.011Z,12.27
2022-08-23T06:06:37.453Z,16.80
2022-08-23T06:09:08.770Z,20.83
2022-08-23T06:11:38.731Z,17.45
2022-08-23T06:14:09.100Z,15.27
2022-08-23T06:16:39.902Z,13.65
2022-08-23T06:19:09.342Z,11.68
2022-08-23T06:21:55.658Z,10.38
2022-08-23T06:24:31.540Z,9.63
2022-08-23T06:27:16.927Z,19.70
2022-08-23T06:29:44.628Z,5.22
2022-08-23T06:32:35.284Z,5.22
2022-08-23T06:35:39.080Z,26.73
2022-08-23T06:38:13.109Z,7.00
2022-08-23T06:40:49.249Z,11.10
2022-08-23T06:43:29.494Z,9.18
2022-08-23T06:46:25.404Z,9.75
2022-08-23T06:48:56.366Z,9.48
2022-08-23T06:51:27.915Z,11.60
2022-08-23T06:54:13.758Z,11.63
2022-08-23T06:56:54.449Z,9.85
2022-08-23T06:59:28.850Z,6.10
2022-08-23T07:02:14.869Z,6.97
2022-08-23T07:04:58.414Z,8.27
2022-08-23T07:07:44.483Z,7.65
2022-08-23T07:10:15.683Z,11.85
2022-08-23T07:12:44.229Z,10.20
2022-08-23T07:15:13.477Z,12.98
2022-08-23T07:17:43.838Z,5.97
2022-08-23T07:20:11.114Z,7.53
2022-08-23T07:22:41.124Z,16.65
2022-08-23T07:25:09.845Z,8.32
2022-08-23T07:27:39.514Z,11.95
2022-08-23T07:30:08.711Z,9.82
2022-08-23T07:32:38.307Z,9.40
2022-08-23T07:35:31.220Z,8.57
2022-08-23T07:38:00.115Z,11.77
2022-08-23T07:40:39.181Z,11.35
2022-08-23T07:43:09.854Z,9.13
2022-08-23T07:45:39.190Z,13.00
2022-08-23T07:48:11.947Z,8.77
2022-08-23T07:51:06.404Z,6.93
2022-08-23T07:53:38.023Z,11.93
2022-08-23T07:56:10.067Z,10.23
2022-08-23T07:58:58.127Z,7.65
2022-08-23T08:01:45.182Z,10.60
2022-08-23T08:04:14.322Z,11.77
2022-08-23T08:06:59.931Z,13.70
2022-08-23T08:09:38.274Z,9.95
2022-08-23T08:12:05.945Z,9.57
2022-08-23T08:14:33.249Z,12.18
2022-08-23T08:17:03.730Z,12.07
2022-08-23T08:19:47.744Z,12.70
2022-08-23T08:22:49.929Z,13.52
2022-08-23T08:25:49.917Z,10.85
2022-08-23T08:28:19.923Z,9.68
2022-08-23T08:30:47.021Z,12.10
2022-08-23T08:33:15.029Z,8.52
2022-08-23T08:35:43.061Z,8.60
2022-08-23T08:38:10.439Z,11.85
2022-08-23T08:40:40.422Z,13.95
2022-08-23T08:43:10.776Z,10.20
2022-08-23T08:45:58.820Z,13.18
2022-08-23T08:48:30.044Z,8.20
2022-08-23T08:51:04.074Z,8.52
2022-08-23T08:53:41.845Z,15.20
2022-08-23T08:56:32.637Z,12.63
2022-08-23T08:59:51.545Z,19.33
2022-08-23T09:02:31.857Z,12.25
2022-08-23T09:05:04.130Z,19.23
2022-08-23T09:07:54.817Z,27.35
2022-08-23T09:10:40.193Z,19.13
2022-08-23T09:13:30.301Z,14.68
2022-08-23T09:16:01.980Z,14.43
2022-08-23T09:18:34.417Z,20.98
2022-08-23T09:21:03.490Z,23.35
2022-08-23T09:23:41.000Z,16.63
2022-08-23T09:26:35.637Z,22.27
2022-08-23T09:29:20.910Z,20.88
2022-08-23T09:31:52.741Z,18.85
2022-08-23T09:34:35.998Z,15.23
2022-08-23T09:37:25.205Z,20.50
2022-08-23T09:40:13.991Z,15.63
2022-08-23T09:42:42.381Z,18.35
2022-08-23T09:45:35.378Z,12.93
2022-08-23T09:48:06.536Z,17.55
2022-08-23T09:50:49.612Z,15.73
2022-08-23T09:53:27.220Z,18.35
2022-08-23T09:55:57.874Z,17.85
2022-08-23T09:58:38.562Z,14.40
2022-08-23T10:01:35.420Z,12.50
2022-08-23T10:04:13.260Z,21.98
2022-08-23T10:06:44.162Z,19.40
2022-08-23T10:09:27.804Z,12.15
2022-08-23T10:11:57.561Z,20.92
2022-08-23T10:14:30.518Z,20.15
2022-08-23T10:17:08.576Z,20.77
2022-08-23T10:20:27.581Z,20.95
2022-08-23T10:23:24.137Z,19.95
2022-08-23T10:28:55.405Z,15.07
2022-08-23T10:31:23.333Z,15.98
2022-08-23T10:34:06.195Z,23.33
2022-08-23T10:36:58.622Z,15.82
2022-08-23T10:39:30.970Z,20.02
2022-08-23T10:42:10.769Z,12.05
2022-08-23T10:44:44.928Z,14.45
2022-08-23T10:47:37.600Z,12.70
2022-08-23T10:50:20.770Z,16.90
2022-08-23T10:53:08.644Z,15.27
2022-08-23T10:55:54.899Z,20.20
2022-08-23T10:58:29.248Z,16.30
2022-08-23T11:01:00.643Z,16.17
2022-08-23T11:03:38.289Z,11.88
2022-08-23T11:06:46.181Z,24.38
2022-08-23T11:09:17.813Z,18.35
2022-08-23T11:12:11.194Z,10.95
2022-08-23T11:14:46.272Z,14.80
2022-08-23T11:17:28.327Z,14.75
2022-08-23T11:19:59.732Z,8.52
2022-08-23T11:22:31.166Z,13.80
2022-08-23T11:25:24.105Z,15.98
2022-08-23T11:28:11.595Z,14.18
2022-08-23T11:30:45.016Z,8.55
2022-08-23T11:33:23.060Z,11.40
2022-08-23T11:36:11.399Z,12.80
2022-08-23T11:38:48.884Z,12.25
2022-08-23T11:41:20.340Z,13.68
2022-08-23T11:44:11.431Z,15.18
2022-08-23T11:47:09.864Z,16.20
2022-08-23T11:50:22.954Z,23.40
2022-08-23T11:53:02.184Z,18.38
2022-08-23T11:55:54.478Z,12.73
2022-08-23T11:58:30.601Z,13.23
2022-08-23T12:01:07.086Z,15.20
2022-08-23T12:04:09.598Z,10.02
2022-08-23T12:06:56.134Z,12.48
2022-08-23T12:11:56.370Z,16.42
2022-08-23T12:14:32.920Z,11.80
2022-08-23T12:17:05.192Z,11.55
2022-08-23T12:19:40.319Z,7.38
2022-08-23T12:22:30.259Z,12.00
2022-08-23T12:24:59.859Z,15.07
2022-08-23T12:27:30.510Z,19.55
2022-08-23T12:30:09.846Z,14.57
2022-08-23T12:32:37.559Z,9.40
2022-08-23T12:35:30.547Z,22.02
2022-08-23T12:38:11.903Z,10.05
2022-08-23T12:40:43.665Z,12.80
2022-08-23T12:43:22.956Z,16.05
2022-08-23T12:46:02.786Z,14.18
2022-08-23T12:48:32.924Z,12.55
2022-08-23T12:51:03.483Z,20.75
2022-08-23T12:53:41.356Z,12.90
2022-08-23T12:56:32.229Z,14.85
2022-08-23T12:59:04.968Z,10.57
2022-08-23T13:01:37.523Z,11.63
2022-08-23T13:04:13.311Z,8.27
2022-08-23T13:06:44.656Z,8.70
2022-08-23T13:09:20.125Z,10.93
2022-08-23T13:11:48.384Z,7.38
2022-08-23T13:14:42.679Z,9.93
2022-08-23T13:17:42.601Z,16.08
2022-08-23T13:20:09.484Z,6.25
2022-08-23T13:22:55.703Z,8.70
2022-08-23T13:25:32.115Z,10.20
2022-08-23T13:28:22.362Z,11.27
2022-08-23T13:31:05.546Z,10.68
2022-08-23T13:33:32.908Z,8.20
2022-08-23T13:36:21.388Z,9.80
2022-08-23T13:38:49.235Z,10.00
2022-08-23T13:41:38.817Z,10.93
2022-08-23T13:44:08.514Z,6.65
2022-08-23T13:46:44.785Z,7.97
2022-08-23T13:49:14.217Z,8.10
2022-08-23T13:52:41.286Z,9.38
2022-08-23T13:54:53.036Z,7.85
2022-08-23T13:57:22.070Z,11.30
2022-08-23T13:59:54.096Z,12.80
2022-08-23T14:02:23.757Z,14.30
2022-08-23T14:04:50.955Z,14.40
2022-08-23T14:07:18.865Z,12.70
2022-08-23T14:09:45.848Z,11.15
2022-08-23T14:12:19.180Z,8.57
2022-08-23T14:14:47.329Z,6.82
2022-08-23T14:17:16.594Z,11.05
2022-08-23T14:22:35.764Z,10.38
2022-08-23T14:25:02.823Z,12.85
2022-08-23T14:27:30.002Z,8.95
2022-08-23T14:29:56.888Z,8.30
2022-08-23T14:32:24.355Z,9.85
2022-08-23T14:34:52.644Z,7.60
2022-08-23T14:38:00.493Z,9.93
2022-08-23T14:40:09.424Z,10.65
2022-08-23T14:42:36.608Z,18.95
2022-08-23T14:45:04.675Z,9.02
2022-08-23T14:47:31.624Z,9.27
2022-08-23T14:49:58.779Z,11.38
2022-08-23T14:52:25.899Z,11.15
2022-08-23T14:54:52.984Z,9.02
2022-08-23T14:57:19.943Z,9.15
2022-08-23T14:59:46.860Z,10.85
2022-08-23T15:02:19.376Z,10.65
2022-08-23T15:04:46.257Z,16.35
2022-08-23T15:07:20.169Z,10.23
2022-08-23T15:09:49.167Z,9.05
2022-08-23T15:15:07.649Z,11.50
2022-08-23T15:17:47.063Z,21.92
2022-08-23T15:20:14.178Z,27.63
2022-08-23T15:22:45.096Z,14.05
2022-08-23T15:25:22.493Z,10.27
2022-08-23T15:27:51.236Z,17.25
2022-08-23T15:30:18.788Z,10.60
2022-08-23T15:32:52.507Z,14.32
2022-08-23T15:35:25.291Z,12.40
2022-08-23T15:37:54.614Z,11.98
2022-08-23T15:40:22.612Z,19.90
2022-08-23T15:42:49.602Z,9.13
2022-08-23T15:45:16.687Z,20.80
2022-08-23T15:47:52.841Z,14.90
2022-08-23T15:50:23.121Z,14.90
2022-08-23T15:52:50.517Z,14.48
2022-08-23T15:55:18.137Z,20.20
2022-08-23T15:57:48.869Z,16.48
2022-08-23T16:00:18.509Z,14.85
2022-08-23T16:03:18.421Z,21.00
2022-08-23T16:05:37.688Z,15.02
2022-08-23T16:08:07.227Z,15.00
2022-08-23T16:10:35.151Z,15.77
2022-08-23T16:13:03.835Z,20.10
2022-08-23T16:15:31.644Z,16.30
2022-08-23T16:17:58.745Z,17.27
2022-08-23T16:20:25.827Z,16.02
2022-08-23T16:22:53.157Z,14.10
2022-08-23T16:25:20.364Z,14.20
2022-08-23T16:27:47.250Z,12.77
2022-08-23T16:30:15.321Z,13.35
2022-08-23T16:32:42.340Z,11.95
2022-08-23T16:35:10.161Z,16.25
2022-08-23T16:37:37.446Z,13.65
2022-08-23T16:40:07.738Z,12.25
2022-08-23T16:42:34.830Z,16.75
2022-08-23T16:45:02.184Z,12.75
2022-08-23T16:47:32.374Z,13.32
2022-08-23T16:49:59.389Z,14.20
2022-08-23T16:52:34.842Z,19.30
2022-08-23T16:55:09.381Z,13.43
2022-08-23T16:57:36.289Z,14.48
2022-08-23T17:00:06.927Z,18.15
2022-08-23T17:02:36.619Z,13.48
2022-08-23T17:05:06.118Z,12.43
2022-08-23T17:07:33.731Z,13.90
2022-08-23T17:10:00.574Z,13.65
2022-08-23T17:12:28.653Z,16.15
2022-08-23T17:14:57.419Z,13.13
2022-08-23T17:17:25.208Z,27.65
2022-08-23T17:19:52.397Z,26.73
2022-08-23T17:22:19.514Z,16.80
2022-08-23T17:24:46.485Z,16.88
2022-08-23T17:27:19.285Z,19.45
2022-08-23T17:29:46.651Z,14.40
2022-08-23T17:32:13.987Z,13.63
2022-08-23T17:34:41.050Z,13.00
2022-08-23T17:37:17.692Z,15.13
2022-08-23T17:39:45.589Z,11.90
2022-08-23T17:42:13.236Z,13.82
2022-08-23T17:44:40.286Z,15.18
2022-08-23T17:47:12.182Z,17.00
2022-08-23T17:49:39.245Z,17.30
2022-08-23T17:52:06.448Z,18.25
2022-08-23T17:54:33.393Z,15.38
2022-08-23T17:57:00.879Z,16.77
2022-08-23T17:59:27.741Z,19.08
2022-08-23T18:01:54.711Z,14.35
2022-08-23T18:04:21.627Z,12.02
2022-08-23T18:06:49.236Z,14.63
2022-08-23T18:09:16.909Z,20.75
2022-08-23T18:11:44.724Z,11.93
2022-08-23T18:14:12.672Z,10.88
2022-08-23T18:16:39.941Z,15.10
2022-08-23T18:19:11.150Z,10.40
2022-08-23T18:21:42.336Z,14.77
2022-08-23T18:24:09.984Z,13.95
2022-08-23T18:26:56.414Z,11.65
2022-08-23T18:29:24.617Z,12.63
2022-08-23T18:31:51.722Z,8.48
2022-08-23T18:34:19.859Z,10.38
2022-08-23T18:36:47.308Z,9.18
2022-08-23T18:39:16.740Z,9.85
2022-08-23T18:42:01.594Z,9.95
2022-08-23T18:44:29.472Z,9.15
2022-08-23T18:46:56.549Z,11.07
2022-08-23T18:49:23.713Z,10.93
2022-08-23T18:51:50.726Z,11.18
2022-08-23T18:54:17.904Z,9.00
2022-08-23T18:56:45.649Z,7.07
2022-08-23T18:59:13.109Z,9.55
2022-08-23T19:01:42.571Z,8.50
2022-08-23T19:04:11.548Z,6.32
2022-08-23T19:06:40.581Z,6.72
2022-08-23T19:09:11.394Z,6.85
2022-08-23T19:11:42.722Z,7.05
2022-08-23T19:14:12.788Z,9.00
2022-08-23T19:16:47.579Z,12.85
2022-08-23T19:19:16.804Z,7.97
2022-08-23T19:21:44.415Z,6.95
2022-08-23T19:24:11.643Z,9.93
2022-08-23T19:26:39.156Z,10.13
2022-08-23T19:29:09.208Z,11.43
2022-08-23T19:31:41.716Z,16.00
2022-08-23T19:34:10.899Z,13.73
2022-08-23T19:37:00.901Z,14.77
2022-08-23T19:41:52.328Z,14.07
2022-08-23T19:44:21.316Z,14.88
2022-08-23T19:46:49.399Z,11.38
2022-08-23T19:49:16.854Z,15.07
2022-08-23T19:51:44.696Z,11.05
2022-08-23T19:54:12.909Z,14.95
2022-08-23T19:56:45.804Z,12.57
2022-08-23T19:59:20.489Z,13.75
2022-08-23T20:01:49.796Z,11.68
2022-08-23T20:04:17.529Z,13.43
2022-08-23T20:06:44.626Z,18.63
2022-08-23T20:09:12.182Z,9.63
2022-08-23T20:11:39.764Z,11.85
2022-08-23T20:14:07.555Z,11.85
2022-08-23T20:16:36.315Z,9.65
2022-08-23T20:19:06.005Z,11.07
2022-08-23T20:21:33.059Z,11.10
2022-08-23T20:24:03.881Z,14.57
2022-08-23T20:26:47.066Z,15.80
2022-08-23T20:29:20.204Z,19.45
2022-08-23T20:31:56.303Z,15.13
2022-08-23T20:34:26.980Z,16.85
2022-08-23T20:36:56.431Z,13.65
2022-08-23T20:39:24.905Z,18.00
2022-08-23T20:41:53.106Z,15.05
2022-08-23T20:44:21.951Z,14.35
2022-08-23T20:46:53.921Z,11.13
2022-08-23T20:49:23.793Z,10.82
2022-08-23T20:51:51.273Z,10.10
2022-08-23T20:54:19.070Z,13.98
2022-08-23T20:56:49.838Z,11.05
2022-08-23T20:59:18.154Z,10.35
2022-08-23T21:01:45.266Z,11.05
2022-08-23T21:04:13.076Z,9.13
2022-08-23T21:06:46.106Z,11.52
2022-08-23T21:09:17.371Z,13.90
2022-08-23T21:11:46.314Z,9.65
2022-08-23T21:14:15.389Z,10.45
2022-08-23T21:16:44.947Z,15.10
2022-08-23T21:19:12.326Z,12.02
2022-08-23T21:21:40.476Z,17.80
2022-08-23T21:24:09.927Z,13.85
2022-08-23T21:26:37.581Z,10.20
2022-08-23T21:29:05.935Z,8.05
2022-08-23T21:31:34.293Z,10.90
2022-08-23T21:34:01.389Z,10.65
2022-08-23T21:36:29.221Z,10.40
2022-08-23T21:38:56.337Z,9.13
2022-08-23T21:41:41.028Z,10.27
2022-08-23T21:44:13.856Z,13.60
2022-08-23T21:46:41.675Z,13.10
2022-08-23T21:49:09.519Z,11.27
2022-08-23T21:51:40.910Z,17.00
2022-08-23T21:54:10.368Z,10.73
2022-08-23T21:56:38.368Z,12.10
2022-08-23T21:59:08.678Z,12.20
2022-08-23T22:01:37.012Z,9.95
2022-08-23T22:04:06.310Z,10.68
2022-08-23T22:06:35.142Z,10.48
2022-08-23T22:09:04.047Z,16.05
2022-08-23T22:11:30.987Z,11.40
2022-08-23T22:13:58.217Z,12.25
2022-08-23T22:16:25.491Z,11.25
2022-08-23T22:18:54.192Z,13.73
2022-08-23T22:21:22.189Z,11.95
2022-08-23T22:23:50.968Z,10.38
2022-08-23T22:26:18.970Z,9.77
2022-08-23T22:28:48.425Z,11.25
2022-08-23T22:31:17.066Z,12.05
2022-08-23T22:33:46.678Z,11.18
2022-08-23T22:36:22.354Z,11.15
2022-08-23T22:38:51.441Z,11.32
2022-08-23T22:41:20.999Z,10.57
2022-08-23T22:43:48.505Z,13.20
2022-08-23T22:46:15.557Z,9.82
2022-08-23T22:48:43.195Z,11.63
2022-08-23T22:51:19.440Z,11.88
2022-08-23T22:53:50.542Z,15.95
2022-08-23T22:56:21.947Z,14.90
2022-08-23T22:58:51.739Z,14.07
2022-08-23T23:01:25.135Z,19.98
2022-08-23T23:03:53.550Z,18.65
2022-08-23T23:06:20.873Z,18.20
2022-08-23T23:08:49.990Z,23.20
2022-08-23T23:11:18.560Z,16.13
2022-08-23T23:13:46.584Z,11.38
2022-08-23T23:16:17.973Z,17.48
2022-08-23T23:19:05.459Z,16.92
2022-08-23T23:21:41.625Z,13.48
2022-08-23T23:24:14.434Z,14.80
2022-08-23T23:26:43.170Z,16.40
2022-08-23T23:29:15.167Z,20.20
2022-08-23T23:31:42.785Z,15.05
2022-08-23T23:34:10.343Z,12.23
2022-08-23T23:36:37.708Z,12.43
2022-08-23T23:39:07.347Z,12.20
2022-08-23T23:41:35.516Z,14.55
2022-08-23T23:44:03.254Z,16.67
2022-08-23T23:46:30.227Z,15.77
2022-08-23T23:48:57.752Z,17.05
2022-08-23T23:51:28.069Z,17.35
2022-08-23T23:53:56.979Z,15.68
2022-08-23T23:56:27.936Z,17.40
2022-08-23T23:58:56.677Z,14.18
